Time;durP1;ratioP1;P1;durP2;ratioP2;P2;SDS_P1;SDS_P2;PMS_P1;PMS_P2;Temp;Humidity;BMP_temperature;BMP_pressure;BME280_temperature;BME280_humidity;BME280_pressure;Samples;Min_cycle;Max_cycle;Signal;HPM_P1;HPM_P2
2022/02/28 00:02:28;;;;;;;7.10;3.97;;;;;;;3.90;66.71;100751.94;4967746;28;20073;-45
2022/02/28 00:04:55;;;;;;;5.13;3.22;;;;;;;3.89;66.27;100751.88;4967825;28;20117;-49
2022/02/28 00:07:22;;;;;;;7.50;4.22;;;;;;;3.85;66.29;100749.22;4964934;28;20479;-44
2022/02/28 00:09:48;;;;;;;8.93;4.90;;;;;;;3.83;66.41;100749.97;4968195;28;20051;-47
2022/02/28 00:12:15;;;;;;;11.05;5.13;;;;;;;3.83;66.55;100761.13;4965555;28;20503;-44
2022/02/28 00:14:41;;;;;;;6.82;3.83;;;;;;;3.79;66.15;100766.94;4969067;28;20054;-42
2022/02/28 00:17:08;;;;;;;10.48;4.68;;;;;;;3.79;66.30;100768.63;4966199;28;20098;-44
2022/02/28 00:19:34;;;;;;;8.80;4.53;;;;;;;3.77;66.85;100776.25;4968857;28;20050;-45
2022/02/28 00:22:01;;;;;;;11.63;4.32;;;;;;;3.77;66.42;100771.13;4968116;28;20050;-47
2022/02/28 00:24:30;;;;;;;10.88;5.22;;;;;;;3.76;66.41;100784.75;4967189;28;20126;-50
2022/02/28 00:26:57;;;;;;;7.18;4.05;;;;;;;3.73;66.58;100789.78;4965485;28;20051;-42
2022/02/28 00:29:23;;;;;;;14.05;5.15;;;;;;;3.73;66.29;100787.22;4963792;28;20050;-48
2022/02/28 00:31:50;;;;;;;8.02;5.13;;;;;;;3.74;66.48;100783.81;4965550;28;20109;-45
2022/02/28 00:34:17;;;;;;;11.65;5.03;;;;;;;3.69;66.15;100787.91;4965299;28;20046;-43
2022/02/28 00:36:43;;;;;;;21.67;3.83;;;;;;;3.69;66.45;100772.53;4962963;28;20117;-49
2022/02/28 00:39:10;;;;;;;9.50;3.80;;;;;;;3.67;66.89;100758.78;4966996;28;20054;-44
2022/02/28 00:41:36;;;;;;;6.10;2.70;;;;;;;3.68;67.89;100747.75;4963372;28;20431;-46
2022/02/28 00:44:03;;;;;;;9.45;3.33;;;;;;;3.66;67.37;100746.78;4963375;28;20090;-46
2022/02/28 00:46:30;;;;;;;6.82;3.65;;;;;;;3.65;67.88;100739.94;4966609;28;20071;-42
2022/02/28 00:48:57;;;;;;;14.32;4.85;;;;;;;3.63;68.18;100747.56;4965964;28;20047;-42
2022/02/28 00:51:23;;;;;;;8.27;4.80;;;;;;;3.66;67.29;100744.22;4965066;28;20050;-41
2022/02/28 00:53:50;;;;;;;4.82;3.38;;;;;;;3.67;68.62;100739.16;4957265;28;20054;-44
2022/02/28 00:56:16;;;;;;;6.43;3.95;;;;;;;3.69;68.38;100736.66;4959922;28;20105;-43
2022/02/28 00:58:43;;;;;;;9.25;4.03;;;;;;;3.70;68.74;100740.97;4957164;28;20554;-44
2022/02/28 01:01:10;;;;;;;8.77;4.80;;;;;;;3.67;68.90;100738.28;4958929;28;20121;-46
2022/02/28 01:03:37;;;;;;;8.55;3.95;;;;;;;3.71;68.60;100737.56;4962581;28;20049;-44
2022/02/28 01:06:03;;;;;;;8.13;4.15;;;;;;;3.66;69.25;100729.75;4961442;28;20117;-43
2022/02/28 01:08:30;;;;;;;11.05;4.55;;;;;;;3.69;69.00;100732.41;4959886;28;20058;-42
2022/02/28 01:10:57;;;;;;;7.65;4.13;;;;;;;3.65;69.79;100734.81;4959673;28;20070;-45
2022/02/28 01:13:24;;;;;;;10.95;4.82;;;;;;;3.67;69.87;100740.84;4961435;28;20113;-42
2022/02/28 01:15:50;;;;;;;8.52;4.35;;;;;;;3.66;69.81;100733.97;4964971;28;20047;-44
2022/02/28 01:18:17;;;;;;;10.20;4.72;;;;;;;3.73;70.33;100733.41;4957631;28;20047;-43
2022/02/28 01:20:44;;;;;;;7.90;3.85;;;;;;;3.77;70.20;100725.00;4962022;28;20054;-43
2022/02/28 01:23:11;;;;;;;11.35;5.18;;;;;;;3.79;69.86;100725.94;4961006;28;20101;-44
2022/02/28 01:25:37;;;;;;;11.88;3.95;;;;;;;3.78;70.45;100718.19;4957251;28;20137;-45
2022/02/28 01:28:04;;;;;;;14.15;5.35;;;;;;;3.74;69.96;100719.75;4962247;28;20083;-43
2022/02/28 01:30:31;;;;;;;7.00;3.78;;;;;;;3.75;70.36;100721.50;4959514;28;20058;-43
2022/02/28 01:32:58;;;;;;;6.88;3.58;;;;;;;3.73;71.28;100712.91;4961142;28;20051;-42
2022/02/28 01:35:24;;;;;;;11.68;3.92;;;;;;;3.72;70.47;100718.84;4959749;28;20051;-45
2022/02/28 01:37:53;;;;;;;5.90;3.88;;;;;;;3.75;70.53;100707.84;4969216;28;20047;-46
2022/02/28 01:40:20;;;;;;;9.52;4.65;;;;;;;3.75;71.02;100708.69;4967615;28;20051;-45
2022/02/28 01:42:47;;;;;;;7.68;3.92;;;;;;;3.74;71.27;100714.63;4967441;28;20078;-42
2022/02/28 01:45:17;;;;;;;12.23;4.72;;;;;;;3.71;71.19;100709.41;4967055;28;20137;-43
2022/02/28 01:47:43;;;;;;;9.48;4.28;;;;;;;3.73;71.84;100712.91;4962865;28;20117;-43
2022/02/28 01:50:10;;;;;;;10.40;5.15;;;;;;;3.74;71.60;100706.94;4966692;28;20053;-44
2022/02/28 01:52:37;;;;;;;10.48;4.07;;;;;;;3.76;71.50;100723.25;4968272;28;20050;-47
2022/02/28 01:55:08;;;;;;;8.50;4.15;;;;;;;3.77;71.59;100719.88;4966547;28;20509;-44
2022/02/28 01:57:34;;;;;;;9.35;4.95;;;;;;;3.80;72.07;100727.69;4967720;28;20058;-44
2022/02/28 02:00:07;;;;;;;7.28;3.97;;;;;;;3.84;71.63;100721.84;4966382;28;20062;-43
2022/02/28 02:02:34;;;;;;;12.85;4.70;;;;;;;3.83;71.63;100725.22;4960965;28;22146;-48
2022/02/28 02:05:02;;;;;;;13.55;4.97;;;;;;;3.85;71.48;100733.84;4959059;28;20415;-42
2022/02/28 02:07:29;;;;;;;11.63;4.55;;;;;;;3.88;71.95;100730.50;4960837;28;20501;-45
2022/02/28 02:09:58;;;;;;;13.13;5.07;;;;;;;3.89;72.31;100729.72;4963114;28;20101;-43
2022/02/28 02:12:27;;;;;;;6.53;2.70;;;;;;;3.88;72.44;100727.09;4962768;28;20466;-43
2022/02/28 02:14:54;;;;;;;8.43;4.30;;;;;;;3.90;72.18;100735.69;4959466;28;20051;-44
2022/02/28 02:17:21;;;;;;;9.93;4.95;;;;;;;3.91;71.06;100742.56;4975338;28;20102;-44
2022/02/28 02:19:52;;;;;;;9.75;3.58;;;;;;;3.92;71.02;100749.44;4955736;28;20611;-43
2022/02/28 02:22:21;;;;;;;9.52;5.43;;;;;;;3.93;71.33;100756.31;4972111;28;20675;-44
2022/02/28 02:24:49;;;;;;;11.75;5.15;;;;;;;3.94;71.40;100740.97;4964822;28;20054;-45
2022/02/28 02:27:15;;;;;;;14.38;5.50;;;;;;;3.94;72.07;100711.91;4966206;28;20051;-42
2022/02/28 02:29:42;;;;;;;7.57;4.38;;;;;;;3.98;72.90;100713.75;4960315;28;20058;-43
2022/02/28 02:32:13;;;;;;;9.13;3.80;;;;;;;4.01;73.57;100719.00;4964617;28;20046;-44
2022/02/28 02:34:40;;;;;;;8.63;4.38;;;;;;;4.02;74.02;100715.59;4955370;28;20054;-45
2022/02/28 02:37:10;;;;;;;12.27;5.00;;;;;;;4.07;73.55;100716.66;4963866;28;20102;-44
2022/02/28 02:39:40;;;;;;;7.55;4.22;;;;;;;4.12;73.37;100716.78;4966768;28;20116;-43
2022/02/28 02:42:07;;;;;;;10.18;5.00;;;;;;;4.13;73.65;100723.69;4964292;28;20102;-44
2022/02/28 02:44:35;;;;;;;15.00;5.88;;;;;;;4.13;73.75;100718.56;4965945;28;20136;-45
2022/02/28 02:47:03;;;;;;;12.82;5.45;;;;;;;4.17;73.47;100735.78;4948809;28;20066;-44
2022/02/28 02:49:30;;;;;;;14.15;5.38;;;;;;;4.18;73.45;100736.66;4961100;28;20055;-43
2022/02/28 02:51:57;;;;;;;11.73;5.15;;;;;;;4.19;73.82;100734.13;4970084;28;20134;-46
2022/02/28 02:54:24;;;;;;;8.98;4.70;;;;;;;4.24;73.83;100721.50;4965046;28;20125;-49
2022/02/28 02:56:50;;;;;;;8.25;4.03;;;;;;;4.25;74.39;100728.34;4966444;28;20471;-45
2022/02/28 02:59:17;;;;;;;8.32;5.10;;;;;;;4.29;74.24;100749.88;4963603;28;20083;-45
2022/02/28 03:01:43;;;;;;;10.70;5.60;;;;;;;4.34;73.12;100733.81;4965881;28;20046;-46
2022/02/28 03:04:10;;;;;;;10.95;4.88;;;;;;;4.39;73.64;100740.78;4965123;28;20166;-46
2022/02/28 03:06:37;;;;;;;5.70;3.33;;;;;;;4.45;74.30;100740.97;4963750;28;20059;-45
2022/02/28 03:09:03;;;;;;;14.73;5.82;;;;;;;4.52;74.29;100719.00;4960730;28;20058;-47
2022/02/28 03:11:30;;;;;;;10.75;5.65;;;;;;;4.52;74.00;100731.81;4964405;28;20043;-45
2022/02/28 03:13:56;;;;;;;11.43;5.03;;;;;;;4.52;74.04;100736.94;4965648;28;20116;-41
2022/02/28 03:16:23;;;;;;;12.05;5.70;;;;;;;4.53;74.24;100739.56;4963610;28;20043;-44
2022/02/28 03:18:50;;;;;;;10.48;4.80;;;;;;;4.53;73.92;100744.69;4963772;28;20566;-46
2022/02/28 03:21:16;;;;;;;10.95;4.93;;;;;;;4.53;73.29;100754.97;4960820;28;20051;-42
2022/02/28 03:23:43;;;;;;;11.13;5.15;;;;;;;4.54;73.19;100756.69;4966634;28;20059;-43
2022/02/28 03:26:09;;;;;;;12.38;5.68;;;;;;;4.54;73.99;100764.38;4963395;28;20156;-42
2022/02/28 03:28:36;;;;;;;9.50;4.63;;;;;;;4.57;73.87;100772.19;4964269;28;20093;-46
2022/02/28 03:31:02;;;;;;;10.57;4.95;;;;;;;4.60;73.97;100785.09;4962402;28;20050;-43
2022/02/28 03:33:29;;;;;;;11.23;5.05;;;;;;;4.68;73.30;100774.22;4964610;28;20043;-46
2022/02/28 03:35:56;;;;;;;10.40;5.13;;;;;;;4.70;74.10;100775.16;4965736;28;20043;-46
2022/02/28 03:38:22;;;;;;;13.65;4.45;;;;;;;4.77;74.12;100759.16;4960731;28;20380;-43
2022/02/28 03:40:49;;;;;;;11.15;4.82;;;;;;;4.79;73.96;100765.19;4960012;28;20121;-46
2022/02/28 03:43:16;;;;;;;13.15;6.15;;;;;;;4.86;73.99;100769.72;4958981;28;20106;-43
2022/02/28 03:45:42;;;;;;;8.82;4.63;;;;;;;4.91;73.90;100766.41;4961208;28;20431;-45
2022/02/28 03:48:09;;;;;;;9.77;5.10;;;;;;;4.94;74.16;100769.09;4963370;28;20126;-48
2022/02/28 03:50:36;;;;;;;16.80;5.43;;;;;;;4.99;74.00;100763.28;4967819;28;20179;-45
2022/02/28 03:53:03;;;;;;;11.82;4.45;;;;;;;5.02;73.93;100765.06;4963958;28;20454;-42
2022/02/28 03:55:29;;;;;;;12.57;5.32;;;;;;;5.03;74.32;100771.94;4967986;28;20085;-43
2022/02/28 03:57:56;;;;;;;12.10;4.97;;;;;;;5.06;74.55;100774.59;4965631;28;20141;-47
2022/02/28 04:00:22;;;;;;;13.63;5.53;;;;;;;5.10;74.57;100779.00;4967673;28;20058;-44
2022/02/28 04:02:49;;;;;;;8.65;4.47;;;;;;;5.14;74.15;100769.72;4966870;28;20050;-44
2022/02/28 04:05:18;;;;;;;10.70;6.07;;;;;;;5.17;74.48;100774.06;4958411;28;20094;-46
2022/02/28 04:07:46;;;;;;;14.15;4.90;;;;;;;5.22;74.51;100772.50;4966847;28;20050;-47
2022/02/28 04:10:13;;;;;;;9.32;4.57;;;;;;;5.21;74.93;100755.38;4958603;28;20149;-43
2022/02/28 04:12:40;;;;;;;14.65;5.55;;;;;;;5.21;74.02;100763.06;4958873;28;20145;-46
2022/02/28 04:15:07;;;;;;;12.40;6.07;;;;;;;5.20;75.07;100749.34;4955787;28;20039;-42
2022/02/28 04:17:34;;;;;;;9.43;5.38;;;;;;;5.21;74.54;100757.94;4957773;28;20755;-45
2022/02/28 04:20:02;;;;;;;13.68;4.65;;;;;;;5.23;74.21;100751.13;4958482;28;20102;-44
2022/02/28 04:22:29;;;;;;;11.52;5.30;;;;;;;5.20;75.50;100745.94;4955656;28;20043;-43
2022/02/28 04:24:56;;;;;;;9.57;3.55;;;;;;;5.17;75.28;100743.25;4954178;28;20456;-42
2022/02/28 04:27:22;;;;;;;16.77;5.22;;;;;;;5.15;75.40;100735.50;4959568;28;20043;-47
2022/02/28 04:29:49;;;;;;;6.90;4.55;;;;;;;5.12;75.86;100738.84;4958734;28;20554;-43
2022/02/28 04:32:16;;;;;;;10.60;3.78;;;;;;;5.14;74.96;100739.75;4968635;28;20451;-42
2022/02/28 04:34:45;;;;;;;12.35;4.53;;;;;;;5.15;75.58;100750.91;4965577;28;20113;-43
2022/02/28 04:37:11;;;;;;;11.45;4.88;;;;;;;5.12;75.06;100751.69;4966016;28;20054;-44
2022/02/28 04:39:38;;;;;;;14.40;5.18;;;;;;;5.18;74.63;100745.00;4965307;28;20093;-44
2022/02/28 04:42:05;;;;;;;13.15;5.30;;;;;;;5.14;75.63;100755.16;4970115;28;20074;-45
2022/02/28 04:44:32;;;;;;;14.55;4.85;;;;;;;5.16;74.88;100759.50;4967148;28;20113;-43
2022/02/28 04:46:59;;;;;;;11.50;5.45;;;;;;;5.18;75.31;100745.00;4968035;28;20054;-44
2022/02/28 04:49:26;;;;;;;12.43;5.00;;;;;;;5.19;75.46;100752.75;4967533;28;20050;-45
2022/02/28 04:51:53;;;;;;;11.98;5.25;;;;;;;5.20;75.31;100745.94;4967193;28;20055;-42
2022/02/28 04:54:19;;;;;;;12.32;5.40;;;;;;;5.17;75.26;100748.41;4968508;28;20054;-44
2022/02/28 04:56:46;;;;;;;13.57;5.88;;;;;;;5.19;75.37;100739.03;4960720;28;20043;-43
2022/02/28 04:59:12;;;;;;;9.48;4.55;;;;;;;5.20;74.84;100736.50;4969820;28;20050;-48
2022/02/28 05:01:39;;;;;;;12.23;5.38;;;;;;;5.25;75.23;100732.41;4963463;28;20218;-44
2022/02/28 05:04:06;;;;;;;16.95;5.22;;;;;;;5.25;76.04;100728.94;4970153;28;20058;-43
2022/02/28 05:06:34;;;;;;;12.80;4.85;;;;;;;5.24;76.32;100728.06;4964797;28;20046;-44
2022/02/28 05:09:01;;;;;;;12.95;5.70;;;;;;;5.23;75.66;100720.31;4967447;28;20050;-48
2022/02/28 05:11:27;;;;;;;16.80;5.32;;;;;;;5.26;75.86;100733.25;4965588;28;20082;-42
2022/02/28 05:13:59;;;;;;;13.43;4.85;;;;;;;5.24;76.27;100734.91;4971377;28;20047;-44
2022/02/28 05:16:26;;;;;;;14.60;5.72;;;;;;;5.27;75.72;100735.03;4957111;28;20054;-50
2022/02/28 05:18:52;;;;;;;16.10;5.00;;;;;;;5.30;76.16;100729.09;4975432;28;20047;-45
2022/02/28 05:21:19;;;;;;;10.38;4.95;;;;;;;5.31;76.05;100726.56;4941890;28;21897;-46
2022/02/28 05:23:46;;;;;;;9.43;4.35;;;;;;;5.30;76.18;100727.38;4941820;28;20051;-47
2022/02/28 05:26:16;;;;;;;12.65;5.75;;;;;;;5.31;76.02;100720.56;4941317;28;20129;-43
2022/02/28 05:28:42;;;;;;;8.82;4.28;;;;;;;5.31;75.96;100713.72;4941838;28;20114;-44
2022/02/28 05:31:09;;;;;;;13.25;5.95;;;;;;;5.33;76.78;100718.91;4940517;28;20107;-47
2022/02/28 05:33:36;;;;;;;11.55;5.05;;;;;;;5.36;76.39;100718.97;4941989;28;20415;-46
2022/02/28 05:36:05;;;;;;;18.83;4.85;;;;;;;5.34;75.96;100710.38;4943155;28;20047;-48
2022/02/28 05:38:32;;;;;;;9.85;4.75;;;;;;;5.37;75.81;100701.03;4940154;28;20047;-46
2022/02/28 05:40:59;;;;;;;8.77;4.75;;;;;;;5.39;76.32;100717.41;4938981;28;20059;-46
2022/02/28 05:43:26;;;;;;;13.57;5.82;;;;;;;5.40;76.67;100716.56;4940831;28;20051;-43
2022/02/28 05:45:53;;;;;;;17.40;5.00;;;;;;;5.43;76.10;100714.91;4959337;28;20047;-47
2022/02/28 05:48:19;;;;;;;10.77;4.10;;;;;;;5.46;76.73;100720.13;4962911;28;20050;-46
2022/02/28 05:50:47;;;;;;;11.43;5.07;;;;;;;5.49;76.11;100715.06;4966835;28;20043;-48
2022/02/28 05:53:14;;;;;;;10.82;4.78;;;;;;;5.49;76.52;100715.97;4963864;28;20058;-47
2022/02/28 05:55:40;;;;;;;12.45;5.65;;;;;;;5.51;75.98;100718.59;4963312;28;20039;-44
2022/02/28 05:58:10;;;;;;;14.93;5.25;;;;;;;5.51;77.16;100723.72;4965282;28;20050;-48
2022/02/28 06:00:37;;;;;;;11.43;4.53;;;;;;;5.54;76.02;100723.78;4965963;28;20042;-45
2022/02/28 06:03:04;;;;;;;14.77;6.05;;;;;;;5.57;76.34;100723.03;4971165;28;20070;-47
2022/02/28 06:05:30;;;;;;;21.60;5.25;;;;;;;5.57;76.85;100713.59;4955999;28;20097;-51
2022/02/28 06:07:57;;;;;;;14.95;4.85;;;;;;;5.61;75.79;100725.72;4959768;28;20047;-45
2022/02/28 06:10:24;;;;;;;18.33;5.82;;;;;;;5.63;77.18;100728.31;4960182;28;20043;-50
2022/02/28 06:12:50;;;;;;;15.32;5.20;;;;;;;5.65;76.74;100721.53;4966983;28;20109;-45
2022/02/28 06:15:33;;;;;;;15.48;6.28;;;;;;;5.67;76.98;100732.72;4962005;28;20161;-44
2022/02/28 06:18:01;;;;;;;19.38;5.72;;;;;;;5.72;75.91;100738.00;4964746;28;20150;-45
2022/02/28 06:20:28;;;;;;;13.40;6.13;;;;;;;5.73;76.28;100743.19;4964260;28;20537;-46
2022/02/28 06:22:55;;;;;;;15.48;6.88;;;;;;;5.76;76.49;100751.00;4963244;28;20402;-45
2022/02/28 06:25:21;;;;;;;12.93;5.70;;;;;;;5.78;76.70;100748.47;4966057;28;20054;-42
2022/02/28 06:27:50;;;;;;;14.68;6.13;;;;;;;5.80;75.22;100741.66;4965539;28;20066;-46
2022/02/28 06:30:18;;;;;;;17.77;6.03;;;;;;;5.80;75.92;100744.22;4966078;28;20051;-47
2022/02/28 06:32:45;;;;;;;12.65;6.43;;;;;;;5.83;76.25;100757.16;4963719;28;20054;-42
2022/02/28 06:35:11;;;;;;;14.40;5.72;;;;;;;5.85;75.62;100757.22;4966797;28;20051;-44
2022/02/28 06:37:38;;;;;;;18.23;5.72;;;;;;;5.84;75.65;100753.75;4959360;28;20055;-45
2022/02/28 06:40:07;;;;;;;23.60;7.50;;;;;;;5.88;76.64;100762.44;4962855;28;20133;-45
2022/02/28 06:42:34;;;;;;;15.80;6.30;;;;;;;5.90;76.17;100759.09;4964613;28;20071;-42
2022/02/28 06:45:01;;;;;;;21.30;6.53;;;;;;;5.90;76.11;100758.22;4979521;28;20051;-44
2022/02/28 06:47:27;;;;;;;20.42;6.90;;;;;;;5.92;76.78;100757.41;4966976;28;20480;-44
2022/02/28 06:49:54;;;;;;;18.25;5.97;;;;;;;5.91;76.96;100752.22;4967342;28;20122;-44
2022/02/28 06:52:23;;;;;;;18.65;5.68;;;;;;;5.96;77.17;100752.38;4959943;28;20051;-46
2022/02/28 06:54:53;;;;;;;18.25;6.93;;;;;;;5.97;76.00;100759.25;4960077;28;20066;-47
2022/02/28 06:57:20;;;;;;;18.05;7.22;;;;;;;5.98;76.17;100753.28;4964035;28;20105;-49
2022/02/28 06:59:47;;;;;;;22.08;6.40;;;;;;;5.98;77.18;100758.44;4961374;28;20105;-44
2022/02/28 07:02:14;;;;;;;14.30;6.15;;;;;;;6.02;77.48;100762.84;4962001;28;20562;-48
2022/02/28 07:04:40;;;;;;;17.30;7.05;;;;;;;6.04;76.02;100766.34;4963351;28;20050;-45
2022/02/28 07:07:07;;;;;;;18.30;7.28;;;;;;;6.05;77.33;100768.09;4965105;28;20078;-45
2022/02/28 07:09:35;;;;;;;13.55;6.80;;;;;;;6.11;77.15;100768.25;4965384;28;20051;-45
2022/02/28 07:12:02;;;;;;;18.85;6.60;;;;;;;6.13;76.68;100771.75;4966530;28;20046;-45
2022/02/28 07:14:29;;;;;;;16.98;6.43;;;;;;;6.18;77.57;100764.13;4958930;28;20055;-44
2022/02/28 07:16:55;;;;;;;16.02;5.85;;;;;;;6.18;76.86;100769.28;4964869;28;20372;-48
2022/02/28 07:19:22;;;;;;;19.92;6.85;;;;;;;6.22;76.50;100770.25;4961830;28;20047;-44
2022/02/28 07:21:49;;;;;;;18.10;8.13;;;;;;;6.25;76.81;100775.47;4961521;28;20047;-50
2022/02/28 07:24:20;;;;;;;18.52;6.45;;;;;;;6.26;77.21;100775.53;4961009;28;20042;-45
2022/02/28 07:26:46;;;;;;;16.13;5.30;;;;;;;6.26;76.92;100778.09;4955386;28;20094;-47
2022/02/28 07:29:13;;;;;;;25.30;7.78;;;;;;;6.34;76.99;100777.41;4955485;28;20054;-46
2022/02/28 07:31:39;;;;;;;20.88;7.85;;;;;;;6.37;77.80;100782.63;4961716;28;20101;-46
2022/02/28 07:34:06;;;;;;;23.45;7.13;;;;;;;6.37;76.88;100783.53;4956312;28;20129;-47
2022/02/28 07:36:33;;;;;;;23.08;7.43;;;;;;;6.40;77.73;100785.31;4961067;28;20534;-47
2022/02/28 07:39:00;;;;;;;26.77;8.73;;;;;;;6.40;77.51;100791.31;4959923;28;20051;-44
2022/02/28 07:41:28;;;;;;;16.73;5.90;;;;;;;6.45;76.55;100783.72;4957737;28;20043;-44
2022/02/28 07:43:54;;;;;;;15.73;6.30;;;;;;;6.43;76.77;100786.22;4959171;28;20135;-47
2022/02/28 07:46:21;;;;;;;13.65;6.50;;;;;;;6.43;77.87;100796.53;4957735;28;20146;-45
2022/02/28 07:48:48;;;;;;;20.73;7.13;;;;;;;6.48;77.65;100788.09;4958428;28;20047;-44
2022/02/28 07:51:15;;;;;;;15.93;6.78;;;;;;;6.45;77.28;100782.84;4960719;28;20059;-47
2022/02/28 07:53:42;;;;;;;19.90;6.15;;;;;;;6.46;79.35;100787.16;4959499;28;20106;-44
2022/02/28 07:56:09;;;;;;;14.95;6.20;;;;;;;6.49;78.66;100789.81;4963339;28;20499;-45
2022/02/28 07:58:35;;;;;;;16.33;6.15;;;;;;;6.48;78.40;100793.22;4955773;28;20046;-45
2022/02/28 08:01:02;;;;;;;19.38;7.18;;;;;;;6.51;77.98;100803.59;4961075;28;20058;-45
2022/02/28 08:03:29;;;;;;;20.17;5.95;;;;;;;6.53;78.53;100794.22;4963132;28;20536;-44
2022/02/28 08:05:56;;;;;;;18.95;7.03;;;;;;;6.54;79.23;100788.22;4960939;28;20051;-47
2022/02/28 08:08:22;;;;;;;10.57;5.75;;;;;;;6.54;78.92;100804.56;4959148;28;20122;-45
2022/02/28 08:10:49;;;;;;;16.10;7.03;;;;;;;6.58;78.93;100795.19;4956923;28;20042;-45
2022/02/28 08:13:15;;;;;;;19.73;7.63;;;;;;;6.59;79.33;100794.38;4956293;28;20051;-45
2022/02/28 08:15:42;;;;;;;15.07;5.57;;;;;;;6.66;78.60;100792.84;4954559;28;20315;-45
2022/02/28 08:18:09;;;;;;;13.85;6.88;;;;;;;6.68;79.02;100788.56;4977551;28;20656;-47
2022/02/28 08:20:36;;;;;;;16.65;6.43;;;;;;;6.72;79.37;100802.41;4958527;28;20046;-46
2022/02/28 08:23:04;;;;;;;18.13;7.28;;;;;;;6.77;78.83;100795.66;4956831;28;20051;-47
2022/02/28 08:25:32;;;;;;;19.63;7.90;;;;;;;6.83;79.31;100800.97;4955108;28;20058;-44
2022/02/28 08:27:58;;;;;;;18.98;7.38;;;;;;;6.89;79.77;100790.81;4960842;28;20050;-43
2022/02/28 08:30:25;;;;;;;18.60;6.68;;;;;;;6.96;78.15;100788.41;4962516;28;20055;-46
2022/02/28 08:32:53;;;;;;;16.75;7.25;;;;;;;7.02;77.56;100796.25;4961618;28;20091;-45
2022/02/28 08:35:21;;;;;;;16.85;7.18;;;;;;;7.09;78.11;100795.56;4964757;28;20562;-43
2022/02/28 08:37:49;;;;;;;21.67;7.15;;;;;;;7.14;78.28;100796.56;4961291;28;20082;-45
2022/02/28 08:40:16;;;;;;;19.48;7.72;;;;;;;7.23;78.61;100805.34;4959995;28;20098;-44
2022/02/28 08:42:42;;;;;;;19.08;7.47;;;;;;;7.28;77.37;100808.88;4963329;28;20062;-45
2022/02/28 08:45:10;;;;;;;22.52;7.35;;;;;;;7.34;77.46;100809.03;4959274;28;20074;-46
2022/02/28 08:47:37;;;;;;;19.58;7.20;;;;;;;7.41;77.81;100815.19;4961785;28;20055;-46
2022/02/28 08:50:06;;;;;;;13.85;6.28;;;;;;;7.46;77.89;100811.88;4960838;28;20070;-46
2022/02/28 08:52:33;;;;;;;19.55;7.32;;;;;;;7.51;77.51;100816.28;4962291;28;20051;-46
2022/02/28 08:55:03;;;;;;;19.63;6.80;;;;;;;7.61;76.79;100812.19;4962143;28;20078;-46
2022/02/28 08:57:29;;;;;;;16.73;5.65;;;;;;;7.63;77.34;100811.38;4963300;28;20106;-51
2022/02/28 08:59:56;;;;;;;16.80;7.25;;;;;;;7.67;78.01;100810.59;4959501;28;20499;-48
2022/02/28 09:02:22;;;;;;;17.92;7.63;;;;;;;7.70;76.65;100809.84;4959569;28;20129;-42
2022/02/28 09:04:49;;;;;;;13.35;6.47;;;;;;;7.72;77.37;100806.44;4957021;28;20047;-47
2022/02/28 09:07:16;;;;;;;22.25;6.75;;;;;;;7.74;77.54;100805.59;4963966;28;20165;-48
2022/02/28 09:09:43;;;;;;;17.92;7.30;;;;;;;7.76;76.55;100806.47;4966119;28;20511;-46
2022/02/28 09:12:10;;;;;;;17.45;6.05;;;;;;;7.80;76.99;100811.75;4963925;28;20051;-48
2022/02/28 09:14:36;;;;;;;16.40;6.47;;;;;;;7.82;76.67;100801.47;4963506;28;20057;-46
2022/02/28 09:17:04;;;;;;;23.33;5.85;;;;;;;7.84;77.03;100805.81;4964223;28;20430;-48
2022/02/28 09:19:32;;;;;;;22.20;6.63;;;;;;;7.88;77.31;100806.75;4963444;28;20097;-46
2022/02/28 09:22:08;;;;;;;16.45;6.93;;;;;;;7.90;76.33;100799.91;4967484;28;20062;-45
2022/02/28 09:24:35;;;;;;;17.17;6.18;;;;;;;7.93;76.52;100801.69;4969187;28;20062;-50
2022/02/28 09:27:04;;;;;;;12.73;5.43;;;;;;;7.96;75.83;100806.91;4967660;28;20098;-43
2022/02/28 09:29:31;;;;;;;12.27;6.30;;;;;;;7.98;75.71;100803.50;4962482;28;20050;-49
2022/02/28 09:31:58;;;;;;;16.92;6.63;;;;;;;8.05;77.07;100798.47;4966442;28;20117;-52
2022/02/28 09:34:25;;;;;;;16.30;6.20;;;;;;;8.09;76.54;100792.53;4967963;28;20046;-46
2022/02/28 09:36:52;;;;;;;14.95;5.60;;;;;;;8.15;77.08;100792.66;4967117;28;20042;-50
2022/02/28 09:39:20;;;;;;;16.83;5.40;;;;;;;8.22;76.40;100799.69;4966468;28;20462;-49
2022/02/28 09:41:47;;;;;;;17.20;6.72;;;;;;;8.28;76.71;100806.66;4967203;28;20074;-46
2022/02/28 09:44:15;;;;;;;17.25;7.47;;;;;;;8.32;75.76;100813.66;4956988;28;20411;-45
2022/02/28 09:46:43;;;;;;;15.65;5.43;;;;;;;8.34;75.79;100801.63;4968306;28;20055;-52
2022/02/28 09:49:12;;;;;;;16.42;7.13;;;;;;;8.38;75.43;100802.56;4963552;28;20676;-46
2022/02/28 09:51:41;;;;;;;24.00;6.68;;;;;;;8.38;75.67;100799.97;4965188;28;20057;-44
2022/02/28 09:54:07;;;;;;;7.78;4.18;;;;;;;8.42;76.43;100804.34;4963515;28;20059;-47
2022/02/28 09:56:34;;;;;;;14.45;6.35;;;;;;;8.43;76.01;100795.75;4953728;28;20047;-46
2022/02/28 09:59:01;;;;;;;15.32;4.82;;;;;;;8.49;75.25;100795.84;4965426;28;20669;-44
2022/02/28 10:01:48;;;;;;;14.50;6.57;;;;;;;8.60;75.21;100803.84;4966962;28;20126;-44
2022/02/28 10:04:16;;;;;;;21.90;7.07;;;;;;;8.67;75.93;100803.94;4963447;28;20051;-46
2022/02/28 10:06:44;;;;;;;14.68;6.60;;;;;;;8.75;74.96;100797.22;4965847;28;20050;-47
2022/02/28 10:09:20;;;;;;;16.40;5.93;;;;;;;8.80;75.12;100799.84;4966301;28;20053;-50
2022/02/28 10:11:49;;;;;;;17.83;6.10;;;;;;;8.85;74.99;100795.66;4964214;28;20090;-45
2022/02/28 10:14:15;;;;;;;16.60;5.82;;;;;;;8.94;74.34;100797.50;4969689;28;20054;-49
2022/02/28 10:16:58;;;;;;;10.93;5.10;;;;;;;9.04;74.81;100798.50;4964174;28;20069;-48
2022/02/28 10:19:29;;;;;;;10.23;6.22;;;;;;;9.15;73.62;100794.38;4965841;28;20070;-48
2022/02/28 10:22:01;;;;;;;12.23;3.85;;;;;;;9.33;74.05;100782.56;4966435;28;20443;-48
2022/02/28 10:24:33;;;;;;;13.30;5.22;;;;;;;9.48;72.79;100780.22;4964257;28;20443;-49
2022/02/28 10:27:00;;;;;;;16.20;6.25;;;;;;;9.63;72.67;100783.84;4961293;28;20043;-48
2022/02/28 10:29:29;;;;;;;14.98;5.40;;;;;;;9.89;72.73;100783.28;4964838;28;20043;-46
2022/02/28 10:31:59;;;;;;;15.75;6.88;;;;;;;10.18;71.78;100782.75;4962049;28;20047;-50
2022/02/28 10:34:28;;;;;;;14.18;5.80;;;;;;;10.39;70.88;100776.06;4969272;28;20113;-47
2022/02/28 10:37:05;;;;;;;19.92;6.65;;;;;;;10.36;69.47;100781.19;4962446;28;20043;-46
2022/02/28 10:39:38;;;;;;;15.85;5.50;;;;;;;10.36;70.21;100786.38;4967223;28;20062;-45
2022/02/28 10:42:08;;;;;;;17.10;6.03;;;;;;;10.34;69.81;100783.78;4980774;28;20054;-50
2022/02/28 10:44:35;;;;;;;12.93;5.63;;;;;;;10.29;69.67;100791.50;4966696;28;20129;-46
2022/02/28 10:47:04;;;;;;;11.63;5.57;;;;;;;10.28;70.06;100794.97;4964442;28;20478;-46
2022/02/28 10:49:34;;;;;;;14.48;4.85;;;;;;;10.25;69.46;100794.94;4963812;28;20089;-45
2022/02/28 10:52:04;;;;;;;14.15;5.82;;;;;;;10.29;69.78;100796.69;4964126;28;20130;-47
2022/02/28 10:54:34;;;;;;;17.73;5.07;;;;;;;10.34;69.53;100793.28;4967831;28;20043;-46
2022/02/28 10:57:05;;;;;;;12.85;5.07;;;;;;;10.40;69.06;100794.19;4964317;28;20109;-44
2022/02/28 10:59:47;;;;;;;13.70;4.95;;;;;;;10.45;69.07;100783.94;4962709;28;20166;-46
2022/02/28 11:02:32;;;;;;;13.23;5.57;;;;;;;10.47;68.89;100784.81;4963205;28;20042;-49
2022/02/28 11:05:07;;;;;;;12.52;5.65;;;;;;;10.41;68.14;100789.91;4967386;28;20149;-48
2022/02/28 11:07:56;;;;;;;12.40;5.40;;;;;;;10.43;69.33;100793.38;4966165;28;20054;-49
2022/02/28 11:10:22;;;;;;;14.98;6.30;;;;;;;10.45;69.24;100802.06;4965403;28;20047;-50
2022/02/28 11:12:52;;;;;;;12.25;5.13;;;;;;;10.46;68.67;100803.78;4964978;28;20113;-44
2022/02/28 11:15:21;;;;;;;16.98;5.45;;;;;;;10.44;68.17;100800.31;4967183;28;20050;-44
2022/02/28 11:17:51;;;;;;;13.27;4.20;;;;;;;10.45;68.99;100807.25;4966223;28;20548;-44
2022/02/28 11:20:19;;;;;;;;;;;;;;;10.36;68.81;100813.16;4967503;28;20503;-47
2022/02/28 11:22:48;;;;;;;14.38;4.32;;;;;;;10.42;68.68;100794.22;4965468;28;20374;-53
2022/02/28 11:25:18;;;;;;;14.15;5.63;;;;;;;10.46;69.25;100798.59;4963307;28;20109;-47
2022/02/28 11:27:46;;;;;;;12.80;5.32;;;;;;;10.47;69.12;100795.16;4965628;28;20051;-51
2022/02/28 11:30:21;;;;;;;17.60;4.22;;;;;;;10.56;68.97;100809.94;4963796;28;20467;-49